sensor_id;sensor_type;location;lat;lon;timestamp;pressure;altitude;pressure_sealevel;temperature;humidity
66742;BME280;53654;54.152;19.432;2023-05-14T00:00:03;102318.40;;;14.40;58.06
66742;BME280;53654;54.152;19.432;2023-05-14T00:02:53;102316.45;;;14.32;58.36
66742;BME280;53654;54.152;19.432;2023-05-14T00:05:22;102315.23;;;14.28;58.59
66742;BME280;53654;54.152;19.432;2023-05-14T00:07:49;102316.27;;;14.25;58.78
66742;BME280;53654;54.152;19.432;2023-05-14T00:10:18;102314.69;;;14.21;58.99
66742;BME280;53654;54.152;19.432;2023-05-14T00:12:50;102309.59;;;14.16;59.00
66742;BME280;53654;54.152;19.432;2023-05-14T00:15:18;102309.23;;;14.10;59.16
66742;BME280;53654;54.152;19.432;2023-05-14T00:17:46;102310.98;;;14.07;59.37
66742;BME280;53654;54.152;19.432;2023-05-14T00:20:15;102308.86;;;14.01;59.62
66742;BME280;53654;54.152;19.432;2023-05-14T00:22:42;102306.40;;;13.98;59.53
66742;BME280;53654;54.152;19.432;2023-05-14T00:25:11;102312.70;;;13.95;59.66
66742;BME280;53654;54.152;19.432;2023-05-14T00:27:39;102310.77;;;13.93;60.09
66742;BME280;53654;54.152;19.432;2023-05-14T00:30:08;102312.34;;;13.91;60.28
66742;BME280;53654;54.152;19.432;2023-05-14T00:32:36;102315.48;;;13.87;60.28
66742;BME280;53654;54.152;19.432;2023-05-14T00:35:04;102315.84;;;13.84;60.36
66742;BME280;53654;54.152;19.432;2023-05-14T00:37:33;102315.48;;;13.82;60.45
66742;BME280;53654;54.152;19.432;2023-05-14T00:40:01;102316.00;;;13.79;60.55
66742;BME280;53654;54.152;19.432;2023-05-14T00:42:28;102312.48;;;13.77;60.74
66742;BME280;53654;54.152;19.432;2023-05-14T00:44:56;102313.52;;;13.74;60.72
66742;BME280;53654;54.152;19.432;2023-05-14T00:47:25;102312.81;;;13.71;60.94
66742;BME280;53654;54.152;19.432;2023-05-14T00:49:53;102312.27;;;13.67;61.08
66742;BME280;53654;54.152;19.432;2023-05-14T00:52:22;102312.95;;;13.62;61.18
66742;BME280;53654;54.152;19.432;2023-05-14T00:54:50;102313.29;;;13.58;61.54
66742;BME280;53654;54.152;19.432;2023-05-14T00:57:18;102308.37;;;13.54;61.67
66742;BME280;53654;54.152;19.432;2023-05-14T00:59:48;102305.55;;;13.50;61.83
66742;BME280;53654;54.152;19.432;2023-05-14T01:02:17;102303.08;;;13.47;61.87
66742;BME280;53654;54.152;19.432;2023-05-14T01:04:45;102304.99;;;13.45;61.95
66742;BME280;53654;54.152;19.432;2023-05-14T01:07:29;102299.55;;;13.43;61.99
66742;BME280;53654;54.152;19.432;2023-05-14T01:10:08;102300.06;;;13.39;62.14
66742;BME280;53654;54.152;19.432;2023-05-14T01:15:22;102298.98;;;13.33;62.47
66742;BME280;53654;54.152;19.432;2023-05-14T01:17:58;102300.89;;;13.30;62.45
66742;BME280;53654;54.152;19.432;2023-05-14T01:20:26;102300.00;;;13.26;62.50
66742;BME280;53654;54.152;19.432;2023-05-14T01:22:55;102302.80;;;13.24;62.56
66742;BME280;53654;54.152;19.432;2023-05-14T01:25:23;102299.63;;;13.21;62.74
66742;BME280;53654;54.152;19.432;2023-05-14T01:30:48;102299.05;;;13.16;63.01
66742;BME280;53654;54.152;19.432;2023-05-14T01:33:18;102300.41;;;13.13;62.94
66742;BME280;53654;54.152;19.432;2023-05-14T01:35:48;102296.39;;;13.13;62.96
66742;BME280;53654;54.152;19.432;2023-05-14T01:38:19;102296.39;;;13.14;62.99
66742;BME280;53654;54.152;19.432;2023-05-14T01:40:48;102290.99;;;13.16;63.21
66742;BME280;53654;54.152;19.432;2023-05-14T01:43:17;102293.81;;;13.17;63.24
66742;BME280;53654;54.152;19.432;2023-05-14T01:45:46;102289.27;;;13.18;63.30
66742;BME280;53654;54.152;19.432;2023-05-14T01:48:14;102291.37;;;13.18;63.48
66742;BME280;53654;54.152;19.432;2023-05-14T01:50:42;102288.21;;;13.18;63.49
66742;BME280;53654;54.152;19.432;2023-05-14T01:53:10;102293.81;;;13.17;63.69
66742;BME280;53654;54.152;19.432;2023-05-14T01:55:38;102292.23;;;13.16;63.76
66742;BME280;53654;54.152;19.432;2023-05-14T01:58:06;102287.10;;;13.13;63.62
66742;BME280;53654;54.152;19.432;2023-05-14T02:00:35;102294.10;;;13.11;63.63
66742;BME280;53654;54.152;19.432;2023-05-14T02:03:03;102290.77;;;13.09;63.81
66742;BME280;53654;54.152;19.432;2023-05-14T02:05:31;102293.20;;;13.07;63.97
66742;BME280;53654;54.152;19.432;2023-05-14T02:07:59;102290.20;;;13.04;64.09
66742;BME280;53654;54.152;19.432;2023-05-14T02:10:27;102287.92;;;13.03;64.23
66742;BME280;53654;54.152;19.432;2023-05-14T02:12:55;102286.52;;;13.01;64.40
66742;BME280;53654;54.152;19.432;2023-05-14T02:15:23;102285.96;;;12.98;64.59
66742;BME280;53654;54.152;19.432;2023-05-14T02:17:51;102282.27;;;12.94;64.79
66742;BME280;53654;54.152;19.432;2023-05-14T02:20:19;102285.92;;;12.90;64.49
66742;BME280;53654;54.152;19.432;2023-05-14T02:22:48;102284.32;;;12.86;64.64
66742;BME280;53654;54.152;19.432;2023-05-14T02:25:16;102284.83;;;12.83;64.71
66742;BME280;53654;54.152;19.432;2023-05-14T02:27:44;102285.33;;;12.80;64.81
66742;BME280;53654;54.152;19.432;2023-05-14T02:30:12;102283.04;;;12.78;64.92
66742;BME280;53654;54.152;19.432;2023-05-14T02:32:40;102282.84;;;12.75;64.87
66742;BME280;53654;54.152;19.432;2023-05-14T02:35:09;102283.88;;;12.73;64.98
66742;BME280;53654;54.152;19.432;2023-05-14T02:37:37;102281.77;;;12.71;65.15
66742;BME280;53654;54.152;19.432;2023-05-14T02:40:05;102283.15;;;12.70;65.10
66742;BME280;53654;54.152;19.432;2023-05-14T02:42:34;102280.69;;;12.67;65.17
66742;BME280;53654;54.152;19.432;2023-05-14T02:45:02;102281.89;;;12.66;65.10
66742;BME280;53654;54.152;19.432;2023-05-14T02:47:30;102284.16;;;12.64;65.32
66742;BME280;53654;54.152;19.432;2023-05-14T02:49:58;102281.34;;;12.62;65.42
66742;BME280;53654;54.152;19.432;2023-05-14T02:52:27;102282.21;;;12.61;65.32
66742;BME280;53654;54.152;19.432;2023-05-14T02:54:55;102279.93;;;12.59;65.23
66742;BME280;53654;54.152;19.432;2023-05-14T02:57:23;102280.96;;;12.58;65.26
66742;BME280;53654;54.152;19.432;2023-05-14T02:59:51;102277.29;;;12.57;65.28
66742;BME280;53654;54.152;19.432;2023-05-14T03:02:19;102279.39;;;12.57;65.49
66742;BME280;53654;54.152;19.432;2023-05-14T03:04:48;102277.98;;;12.57;65.51
66742;BME280;53654;54.152;19.432;2023-05-14T03:07:17;102282.02;;;12.57;65.56
66742;BME280;53654;54.152;19.432;2023-05-14T03:09:45;102284.48;;;12.58;65.70
66742;BME280;53654;54.152;19.432;2023-05-14T03:12:13;102287.80;;;12.58;65.71
66742;BME280;53654;54.152;19.432;2023-05-14T03:14:41;102285.35;;;12.59;65.84
66742;BME280;53654;54.152;19.432;2023-05-14T03:17:09;102288.17;;;12.62;66.00
66742;BME280;53654;54.152;19.432;2023-05-14T03:19:37;102290.29;;;12.64;66.37
66742;BME280;53654;54.152;19.432;2023-05-14T03:22:07;102288.55;;;12.65;66.18
66742;BME280;53654;54.152;19.432;2023-05-14T03:24:37;102284.00;;;12.66;66.23
66742;BME280;53654;54.152;19.432;2023-05-14T03:27:05;102285.05;;;12.66;66.03
66742;BME280;53654;54.152;19.432;2023-05-14T03:29:33;102283.48;;;12.67;66.05
66742;BME280;53654;54.152;19.432;2023-05-14T03:32:02;102285.59;;;12.67;66.22
66742;BME280;53654;54.152;19.432;2023-05-14T03:34:30;102285.23;;;12.67;66.40
66742;BME280;53654;54.152;19.432;2023-05-14T03:36:58;102278.92;;;12.67;66.48
66742;BME280;53654;54.152;19.432;2023-05-14T03:39:27;102278.75;;;12.67;66.60
66742;BME280;53654;54.152;19.432;2023-05-14T03:41:54;102278.77;;;12.67;66.45
66742;BME280;53654;54.152;19.432;2023-05-14T03:44:25;102279.13;;;12.69;66.56
66742;BME280;53654;54.152;19.432;2023-05-14T03:46:53;102275.12;;;12.72;66.50
66742;BME280;53654;54.152;19.432;2023-05-14T03:49:22;102275.30;;;12.75;66.34
66742;BME280;53654;54.152;19.432;2023-05-14T03:51:50;102277.27;;;12.79;66.37
66742;BME280;53654;54.152;19.432;2023-05-14T03:54:18;102278.34;;;12.82;66.45
66742;BME280;53654;54.152;19.432;2023-05-14T03:56:46;102277.50;;;12.88;66.49
66742;BME280;53654;54.152;19.432;2023-05-14T03:59:14;102274.91;;;12.96;66.51
66742;BME280;53654;54.152;19.432;2023-05-14T04:01:43;102274.45;;;13.03;66.70
66742;BME280;53654;54.152;19.432;2023-05-14T04:04:11;102273.80;;;13.12;66.44
66742;BME280;53654;54.152;19.432;2023-05-14T04:06:39;102275.98;;;13.25;66.21
66742;BME280;53654;54.152;19.432;2023-05-14T04:09:07;102278.73;;;13.55;65.67
66742;BME280;53654;54.152;19.432;2023-05-14T04:11:37;102278.17;;;14.18;64.71
66742;BME280;53654;54.152;19.432;2023-05-14T04:14:05;102272.52;;;14.96;62.86
66742;BME280;53654;54.152;19.432;2023-05-14T04:16:33;102275.02;;;15.81;60.21
66742;BME280;53654;54.152;19.432;2023-05-14T04:19:02;102271.89;;;16.71;57.37
66742;BME280;53654;54.152;19.432;2023-05-14T04:21:31;102268.77;;;17.59;54.83
66742;BME280;53654;54.152;19.432;2023-05-14T04:23:59;102263.11;;;18.43;52.27
66742;BME280;53654;54.152;19.432;2023-05-14T04:26:27;102259.27;;;19.25;49.68
66742;BME280;53654;54.152;19.432;2023-05-14T04:28:55;102261.29;;;20.03;47.86
66742;BME280;53654;54.152;19.432;2023-05-14T04:31:23;102252.90;;;20.76;45.49
66742;BME280;53654;54.152;19.432;2023-05-14T04:33:51;102254.63;;;21.47;42.91
66742;BME280;53654;54.152;19.432;2023-05-14T04:36:19;102248.59;;;22.15;41.84
66742;BME280;53654;54.152;19.432;2023-05-14T04:38:47;102248.76;;;22.78;40.73
66742;BME280;53654;54.152;19.432;2023-05-14T04:41:15;102241.15;;;23.30;39.28
66742;BME280;53654;54.152;19.432;2023-05-14T04:43:43;102243.61;;;23.82;38.78
66742;BME280;53654;54.152;19.432;2023-05-14T04:46:11;102238.56;;;24.26;37.13
66742;BME280;53654;54.152;19.432;2023-05-14T04:48:40;102236.65;;;24.67;36.35
66742;BME280;53654;54.152;19.432;2023-05-14T04:51:08;102240.55;;;25.03;36.06
66742;BME280;53654;54.152;19.432;2023-05-14T04:53:36;102237.74;;;25.37;34.71
66742;BME280;53654;54.152;19.432;2023-05-14T04:56:05;102235.73;;;25.69;34.39
66742;BME280;53654;54.152;19.432;2023-05-14T04:58:33;102230.83;;;26.00;33.41
66742;BME280;53654;54.152;19.432;2023-05-14T05:01:03;102229.23;;;26.28;32.94
66742;BME280;53654;54.152;19.432;2023-05-14T05:03:32;102223.52;;;26.56;32.33
66742;BME280;53654;54.152;19.432;2023-05-14T05:06:00;102221.23;;;26.86;32.12
66742;BME280;53654;54.152;19.432;2023-05-14T05:08:29;102222.69;;;27.18;31.61
66742;BME280;53654;54.152;19.432;2023-05-14T05:10:57;102218.83;;;27.49;31.34
66742;BME280;53654;54.152;19.432;2023-05-14T05:13:25;102215.98;;;27.65;31.02
66742;BME280;53654;54.152;19.432;2023-05-14T05:15:53;102215.29;;;27.74;30.43
66742;BME280;53654;54.152;19.432;2023-05-14T05:18:21;102210.90;;;28.03;29.79
66742;BME280;53654;54.152;19.432;2023-05-14T05:20:49;102211.08;;;28.36;29.59
66742;BME280;53654;54.152;19.432;2023-05-14T05:23:17;102209.18;;;28.70;28.70
66742;BME280;53654;54.152;19.432;2023-05-14T05:25:45;102210.27;;;29.02;29.16
66742;BME280;53654;54.152;19.432;2023-05-14T05:28:13;102208.36;;;29.29;28.69
66742;BME280;53654;54.152;19.432;2023-05-14T05:30:41;102206.71;;;29.52;28.37
66742;BME280;53654;54.152;19.432;2023-05-14T05:33:12;102201.06;;;29.75;28.14
66742;BME280;53654;54.152;19.432;2023-05-14T05:35:40;102199.95;;;30.00;26.91
66742;BME280;53654;54.152;19.432;2023-05-14T05:38:10;102199.74;;;30.24;26.07
66742;BME280;53654;54.152;19.432;2023-05-14T05:40:38;102195.85;;;30.46;24.79
66742;BME280;53654;54.152;19.432;2023-05-14T05:43:06;102191.48;;;30.60;25.25
66742;BME280;53654;54.152;19.432;2023-05-14T05:45:34;102191.28;;;30.68;24.86
66742;BME280;53654;54.152;19.432;2023-05-14T05:48:02;102189.96;;;30.66;24.75
66742;BME280;53654;54.152;19.432;2023-05-14T05:50:30;102185.11;;;30.50;24.80
66742;BME280;53654;54.152;19.432;2023-05-14T05:52:58;102187.69;;;30.19;25.26
66742;BME280;53654;54.152;19.432;2023-05-14T05:55:27;102189.48;;;29.81;25.16
66742;BME280;53654;54.152;19.432;2023-05-14T05:57:55;102188.12;;;29.72;25.87
66742;BME280;53654;54.152;19.432;2023-05-14T06:00:23;102189.62;;;29.87;25.42
66742;BME280;53654;54.152;19.432;2023-05-14T06:02:52;102184.63;;;30.00;24.31
66742;BME280;53654;54.152;19.432;2023-05-14T06:05:20;102182.73;;;30.04;24.09
66742;BME280;53654;54.152;19.432;2023-05-14T06:07:49;102185.84;;;30.09;23.66
66742;BME280;53654;54.152;19.432;2023-05-14T06:10:18;102187.92;;;30.10;23.70
66742;BME280;53654;54.152;19.432;2023-05-14T06:12:46;102191.96;;;30.19;24.12
66742;BME280;53654;54.152;19.432;2023-05-14T06:15:14;102188.80;;;30.36;23.72
66742;BME280;53654;54.152;19.432;2023-05-14T06:17:42;102194.00;;;30.55;23.91
66742;BME280;53654;54.152;19.432;2023-05-14T06:20:10;102191.99;;;30.73;25.00
66742;BME280;53654;54.152;19.432;2023-05-14T06:22:39;102196.20;;;30.93;25.48
66742;BME280;53654;54.152;19.432;2023-05-14T06:25:07;102193.85;;;31.00;25.25
66742;BME280;53654;54.152;19.432;2023-05-14T06:27:35;102197.19;;;30.96;25.21
66742;BME280;53654;54.152;19.432;2023-05-14T06:30:04;102199.34;;;30.89;24.98
66742;BME280;53654;54.152;19.432;2023-05-14T06:32:33;102199.59;;;30.78;25.20
66742;BME280;53654;54.152;19.432;2023-05-14T06:35:01;102201.58;;;30.52;25.23
66742;BME280;53654;54.152;19.432;2023-05-14T06:37:30;102201.48;;;30.27;25.70
66742;BME280;53654;54.152;19.432;2023-05-14T06:40:00;102198.86;;;30.00;26.60
66742;BME280;53654;54.152;19.432;2023-05-14T06:42:28;102203.98;;;29.61;26.86
66742;BME280;53654;54.152;19.432;2023-05-14T06:44:57;102205.14;;;29.23;27.38
66742;BME280;53654;54.152;19.432;2023-05-14T06:47:25;102203.89;;;28.92;26.92
66742;BME280;53654;54.152;19.432;2023-05-14T06:49:53;102197.30;;;28.68;27.42
66742;BME280;53654;54.152;19.432;2023-05-14T06:52:23;102201.52;;;28.49;27.83
66742;BME280;53654;54.152;19.432;2023-05-14T06:54:52;102205.64;;;28.37;27.32
66742;BME280;53654;54.152;19.432;2023-05-14T06:57:20;102199.44;;;28.24;26.80
66742;BME280;53654;54.152;19.432;2023-05-14T06:59:48;102198.06;;;28.14;26.84
66742;BME280;53654;54.152;19.432;2023-05-14T07:02:16;102193.94;;;28.05;26.39
66742;BME280;53654;54.152;19.432;2023-05-14T07:04:45;102195.17;;;27.96;26.40
66742;BME280;53654;54.152;19.432;2023-05-14T07:07:13;102190.30;;;27.97;26.38
66742;BME280;53654;54.152;19.432;2023-05-14T07:09:44;102192.25;;;27.84;26.13
66742;BME280;53654;54.152;19.432;2023-05-14T07:12:12;102190.19;;;27.71;26.78
66742;BME280;53654;54.152;19.432;2023-05-14T07:14:40;102190.39;;;27.64;26.71
66742;BME280;53654;54.152;19.432;2023-05-14T07:17:08;102184.42;;;27.52;26.29
66742;BME280;53654;54.152;19.432;2023-05-14T07:19:36;102182.67;;;27.32;26.22
66742;BME280;53654;54.152;19.432;2023-05-14T07:22:04;102185.34;;;27.14;26.00
66742;BME280;53654;54.152;19.432;2023-05-14T07:24:32;102179.30;;;26.96;26.49
66742;BME280;53654;54.152;19.432;2023-05-14T07:27:01;102176.14;;;26.72;26.49
66742;BME280;53654;54.152;19.432;2023-05-14T07:29:29;102173.34;;;26.54;27.09
66742;BME280;53654;54.152;19.432;2023-05-14T07:31:57;102176.14;;;26.35;27.08
66742;BME280;53654;54.152;19.432;2023-05-14T07:34:25;102170.02;;;26.18;26.86
66742;BME280;53654;54.152;19.432;2023-05-14T07:36:53;102167.86;;;26.11;27.47
66742;BME280;53654;54.152;19.432;2023-05-14T07:39:21;102164.14;;;26.11;27.65
66742;BME280;53654;54.152;19.432;2023-05-14T07:41:49;102169.44;;;26.12;27.73
66742;BME280;53654;54.152;19.432;2023-05-14T07:44:17;102167.04;;;26.07;27.56
66742;BME280;53654;54.152;19.432;2023-05-14T07:46:46;102163.23;;;26.04;27.12
66742;BME280;53654;54.152;19.432;2023-05-14T07:49:14;102163.82;;;25.98;26.70
66742;BME280;53654;54.152;19.432;2023-05-14T07:51:42;102160.21;;;25.92;26.34
66742;BME280;53654;54.152;19.432;2023-05-14T07:54:10;102155.49;;;25.90;26.53
66742;BME280;53654;54.152;19.432;2023-05-14T07:56:38;102154.86;;;25.81;26.11
66742;BME280;53654;54.152;19.432;2023-05-14T07:59:06;102153.98;;;25.78;26.72
66742;BME280;53654;54.152;19.432;2023-05-14T08:01:34;102150.39;;;25.74;27.27
66742;BME280;53654;54.152;19.432;2023-05-14T08:04:06;102149.27;;;25.72;27.71
66742;BME280;53654;54.152;19.432;2023-05-14T08:06:34;102149.15;;;25.71;27.96
66742;BME280;53654;54.152;19.432;2023-05-14T08:09:04;102147.55;;;25.63;27.38
66742;BME280;53654;54.152;19.432;2023-05-14T08:11:32;102148.98;;;25.55;27.59
66742;BME280;53654;54.152;19.432;2023-05-14T08:14:00;102145.26;;;25.44;28.17
66742;BME280;53654;54.152;19.432;2023-05-14T08:16:28;102144.77;;;25.35;28.66
66742;BME280;53654;54.152;19.432;2023-05-14T08:18:56;102145.83;;;25.25;29.09
66742;BME280;53654;54.152;19.432;2023-05-14T08:21:24;102147.31;;;25.16;29.14
66742;BME280;53654;54.152;19.432;2023-05-14T08:23:52;102144.15;;;25.11;29.16
66742;BME280;53654;54.152;19.432;2023-05-14T08:26:20;102142.15;;;25.12;28.96
66742;BME280;53654;54.152;19.432;2023-05-14T08:28:48;102141.71;;;25.10;29.14
66742;BME280;53654;54.152;19.432;2023-05-14T08:31:16;102142.20;;;25.11;29.16
66742;BME280;53654;54.152;19.432;2023-05-14T08:33:44;102139.30;;;25.12;29.59
66742;BME280;53654;54.152;19.432;2023-05-14T08:36:12;102132.67;;;25.12;29.25
66742;BME280;53654;54.152;19.432;2023-05-14T08:38:40;102130.35;;;25.12;29.49
66742;BME280;53654;54.152;19.432;2023-05-14T08:41:09;102130.77;;;25.15;29.58
66742;BME280;53654;54.152;19.432;2023-05-14T08:43:48;102126.89;;;25.21;29.43
66742;BME280;53654;54.152;19.432;2023-05-14T08:46:22;102128.05;;;25.30;29.26
66742;BME280;53654;54.152;19.432;2023-05-14T08:48:56;102117.80;;;25.46;29.06
66742;BME280;53654;54.152;19.432;2023-05-14T08:51:27;102115.79;;;25.66;29.09
66742;BME280;53654;54.152;19.432;2023-05-14T08:53:56;102105.55;;;25.88;28.31
66742;BME280;53654;54.152;19.432;2023-05-14T08:56:25;102101.90;;;26.11;27.94
66742;BME280;53654;54.152;19.432;2023-05-14T08:58:54;102104.86;;;26.36;27.35
66742;BME280;53654;54.152;19.432;2023-05-14T09:01:22;102101.73;;;26.51;25.91
66742;BME280;53654;54.152;19.432;2023-05-14T09:03:51;102096.36;;;26.67;25.37
66742;BME280;53654;54.152;19.432;2023-05-14T09:06:21;102095.86;;;26.86;24.12
66742;BME280;53654;54.152;19.432;2023-05-14T09:08:49;102097.50;;;26.96;24.89
66742;BME280;53654;54.152;19.432;2023-05-14T09:11:17;102088.79;;;27.08;24.22
66742;BME280;53654;54.152;19.432;2023-05-14T09:13:45;102086.70;;;27.13;23.92
66742;BME280;53654;54.152;19.432;2023-05-14T09:16:14;102086.35;;;27.07;22.60
66742;BME280;53654;54.152;19.432;2023-05-14T09:18:43;102075.09;;;27.18;22.48
66742;BME280;53654;54.152;19.432;2023-05-14T09:21:16;102070.00;;;27.32;23.21
66742;BME280;53654;54.152;19.432;2023-05-14T09:23:44;102070.98;;;27.43;23.77
66742;BME280;53654;54.152;19.432;2023-05-14T09:26:16;102070.67;;;27.58;23.21
66742;BME280;53654;54.152;19.432;2023-05-14T09:28:45;102069.21;;;27.70;22.87
66742;BME280;53654;54.152;19.432;2023-05-14T09:31:13;102057.88;;;27.74;22.61
66742;BME280;53654;54.152;19.432;2023-05-14T09:33:42;102061.15;;;27.79;22.69
66742;BME280;53654;54.152;19.432;2023-05-14T09:36:10;102060.45;;;27.87;22.76
66742;BME280;53654;54.152;19.432;2023-05-14T09:38:38;102060.10;;;27.87;22.42
66742;BME280;53654;54.152;19.432;2023-05-14T09:41:06;102058.19;;;27.92;21.07
66742;BME280;53654;54.152;19.432;2023-05-14T09:43:34;102051.39;;;27.83;21.38
66742;BME280;53654;54.152;19.432;2023-05-14T09:46:02;102046.69;;;27.69;21.43
66742;BME280;53654;54.152;19.432;2023-05-14T09:48:31;102048.66;;;27.51;21.51
66742;BME280;53654;54.152;19.432;2023-05-14T09:50:59;102044.39;;;27.38;21.77
66742;BME280;53654;54.152;19.432;2023-05-14T09:53:28;102040.29;;;27.16;21.82
66742;BME280;53654;54.152;19.432;2023-05-14T09:55:57;102033.77;;;27.08;22.25
66742;BME280;53654;54.152;19.432;2023-05-14T09:58:25;102028.73;;;27.05;21.93
66742;BME280;53654;54.152;19.432;2023-05-14T10:00:53;102031.13;;;27.08;22.34
66742;BME280;53654;54.152;19.432;2023-05-14T10:03:25;102025.20;;;27.17;22.47
66742;BME280;53654;54.152;19.432;2023-05-14T10:05:59;102033.95;;;27.26;22.23
66742;BME280;53654;54.152;19.432;2023-05-14T10:08:32;102028.23;;;27.14;21.55
66742;BME280;53654;54.152;19.432;2023-05-14T10:11:06;102020.86;;;27.08;21.79
66742;BME280;53654;54.152;19.432;2023-05-14T10:13:38;102017.13;;;27.08;21.79
66742;BME280;53654;54.152;19.432;2023-05-14T10:16:24;102019.61;;;26.96;21.66
66742;BME280;53654;54.152;19.432;2023-05-14T10:19:00;102015.45;;;26.84;21.91
66742;BME280;53654;54.152;19.432;2023-05-14T10:21:34;102012.59;;;26.81;21.01
66742;BME280;53654;54.152;19.432;2023-05-14T10:24:04;102008.34;;;26.74;20.56
66742;BME280;53654;54.152;19.432;2023-05-14T10:26:35;102010.75;;;26.78;21.18
66742;BME280;53654;54.152;19.432;2023-05-14T10:29:08;102005.66;;;26.74;21.76
66742;BME280;53654;54.152;19.432;2023-05-14T10:37:19;102001.44;;;26.65;21.41
66742;BME280;53654;54.152;19.432;2023-05-14T10:42:26;101997.01;;;26.33;21.74
66742;BME280;53654;54.152;19.432;2023-05-14T10:44:57;101994.98;;;26.34;22.20
66742;BME280;53654;54.152;19.432;2023-05-14T10:47:28;101988.34;;;26.27;22.33
66742;BME280;53654;54.152;19.432;2023-05-14T10:50:00;101982.52;;;26.19;22.62
66742;BME280;53654;54.152;19.432;2023-05-14T10:52:28;101981.49;;;26.12;22.95
66742;BME280;53654;54.152;19.432;2023-05-14T10:54:58;101982.63;;;26.01;22.93
66742;BME280;53654;54.152;19.432;2023-05-14T10:57:30;101983.60;;;25.92;23.13
66742;BME280;53654;54.152;19.432;2023-05-14T10:59:59;101975.42;;;25.91;22.62
66742;BME280;53654;54.152;19.432;2023-05-14T11:02:34;101976.86;;;25.91;22.28
66742;BME280;53654;54.152;19.432;2023-05-14T11:05:05;101971.16;;;25.87;21.84
66742;BME280;53654;54.152;19.432;2023-05-14T11:07:37;101963.37;;;25.86;21.86
66742;BME280;53654;54.152;19.432;2023-05-14T11:12:37;101965.38;;;25.75;22.43
66742;BME280;53654;54.152;19.432;2023-05-14T11:15:07;101960.96;;;25.74;22.46
66742;BME280;53654;54.152;19.432;2023-05-14T11:17:40;101952.91;;;25.81;22.79
66742;BME280;53654;54.152;19.432;2023-05-14T11:20:09;101952.92;;;25.84;22.23
66742;BME280;53654;54.152;19.432;2023-05-14T11:22:39;101957.91;;;25.84;21.82
66742;BME280;53654;54.152;19.432;2023-05-14T11:25:09;101950.30;;;25.73;21.50
66742;BME280;53654;54.152;19.432;2023-05-14T11:27:37;101948.57;;;25.65;21.75
66742;BME280;53654;54.152;19.432;2023-05-14T11:30:13;101948.55;;;25.59;21.76
66742;BME280;53654;54.152;19.432;2023-05-14T11:32:47;101946.67;;;25.47;21.77
66742;BME280;53654;54.152;19.432;2023-05-14T11:35:16;101945.77;;;25.36;22.36
66742;BME280;53654;54.152;19.432;2023-05-14T11:37:49;101944.44;;;25.17;22.03
66742;BME280;53654;54.152;19.432;2023-05-14T11:40:19;101932.02;;;25.15;22.28
66742;BME280;53654;54.152;19.432;2023-05-14T11:42:50;101926.64;;;25.19;22.55
66742;BME280;53654;54.152;19.432;2023-05-14T11:45:26;101918.23;;;25.23;22.41
66742;BME280;53654;54.152;19.432;2023-05-14T11:47:54;101917.76;;;25.29;22.39
66742;BME280;53654;54.152;19.432;2023-05-14T11:50:22;101913.12;;;25.28;22.14
66742;BME280;53654;54.152;19.432;2023-05-14T11:52:55;101911.48;;;25.25;22.43
66742;BME280;53654;54.152;19.432;2023-05-14T11:55:23;101907.09;;;25.21;22.49
66742;BME280;53654;54.152;19.432;2023-05-14T11:57:51;101911.13;;;25.19;22.81
66742;BME280;53654;54.152;19.432;2023-05-14T12:00:19;101906.75;;;25.14;22.86
66742;BME280;53654;54.152;19.432;2023-05-14T12:02:51;101908.41;;;25.02;22.88
66742;BME280;53654;54.152;19.432;2023-05-14T12:05:19;101908.05;;;24.91;23.05
66742;BME280;53654;54.152;19.432;2023-05-14T12:07:47;101901.10;;;24.87;23.07
66742;BME280;53654;54.152;19.432;2023-05-14T12:10:15;101897.66;;;24.88;23.23
66742;BME280;53654;54.152;19.432;2023-05-14T12:12:44;101893.60;;;24.87;23.06
66742;BME280;53654;54.152;19.432;2023-05-14T12:15:15;101890.96;;;24.80;23.20
66742;BME280;53654;54.152;19.432;2023-05-14T12:17:50;101889.30;;;24.81;23.51
66742;BME280;53654;54.152;19.432;2023-05-14T12:20:18;101888.92;;;24.85;23.82
66742;BME280;53654;54.152;19.432;2023-05-14T12:22:47;101885.89;;;24.92;24.03
66742;BME280;53654;54.152;19.432;2023-05-14T12:25:15;101883.45;;;24.98;23.33
66742;BME280;53654;54.152;19.432;2023-05-14T12:27:44;101881.86;;;25.04;23.49
66742;BME280;53654;54.152;19.432;2023-05-14T12:30:12;101881.41;;;25.10;23.25
66742;BME280;53654;54.152;19.432;2023-05-14T12:32:44;101876.95;;;25.14;23.49
66742;BME280;53654;54.152;19.432;2023-05-14T12:35:12;101878.45;;;25.16;23.29
66742;BME280;53654;54.152;19.432;2023-05-14T12:37:41;101874.63;;;25.17;23.24
66742;BME280;53654;54.152;19.432;2023-05-14T12:40:10;101868.77;;;25.16;23.62
66742;BME280;53654;54.152;19.432;2023-05-14T12:42:38;101866.00;;;25.18;23.87
66742;BME280;53654;54.152;19.432;2023-05-14T12:45:07;101867.73;;;25.15;23.73
66742;BME280;53654;54.152;19.432;2023-05-14T12:47:35;101868.83;;;25.08;23.21
66742;BME280;53654;54.152;19.432;2023-05-14T12:50:04;101864.77;;;25.07;23.61
66742;BME280;53654;54.152;19.432;2023-05-14T12:52:33;101863.63;;;25.05;23.96
66742;BME280;53654;54.152;19.432;2023-05-14T12:55:07;101864.61;;;25.03;24.66
66742;BME280;53654;54.152;19.432;2023-05-14T12:57:37;101869.06;;;25.04;25.32
66742;BME280;53654;54.152;19.432;2023-05-14T13:00:07;101863.42;;;25.02;25.37
66742;BME280;53654;54.152;19.432;2023-05-14T13:02:41;101867.28;;;25.00;25.65
66742;BME280;53654;54.152;19.432;2023-05-14T13:05:11;101867.44;;;24.97;26.51